createdAt,value
2023-01-19T00:00:15.502Z,94371.53
2023-01-19T00:02:43.488Z,94370.91
2023-01-19T00:05:10.149Z,94383.56
2023-01-19T00:07:36.611Z,94376.75
2023-01-19T00:10:03.491Z,94387.41
2023-01-19T00:12:30.209Z,94390.03
2023-01-19T00:14:56.658Z,94388.03
2023-01-19T00:17:23.140Z,94399.28
2023-01-19T00:19:49.624Z,94392.03
2023-01-19T00:22:16.124Z,94385.63
2023-01-19T00:24:42.600Z,94391.63
2023-01-19T00:27:09.029Z,94388.03
2023-01-19T00:29:35.517Z,94399.47
2023-01-19T00:32:03.045Z,94393.88
2023-01-19T00:34:36.934Z,94393.69
2023-01-19T00:37:04.000Z,94402.31
2023-01-19T00:39:30.418Z,94405.53
2023-01-19T00:42:15.667Z,94407.94
2023-01-19T00:44:42.161Z,94421.44
2023-01-19T00:47:08.695Z,94428.25
2023-01-19T00:49:35.149Z,94429.69
2023-01-19T00:52:01.611Z,94426.25
2023-01-19T00:54:28.056Z,94430.31
2023-01-19T00:56:54.506Z,94418.63
2023-01-19T00:59:20.940Z,94421.44
2023-01-19T01:01:47.460Z,94422.88
2023-01-19T01:04:14.284Z,94426.88
2023-01-19T01:06:40.775Z,94407.38
2023-01-19T01:09:12.066Z,94410.00
2023-01-19T01:11:39.957Z,94415.00
2023-01-19T01:14:06.430Z,94410.78
2023-01-19T01:16:33.008Z,94403.31
2023-01-19T01:18:59.569Z,94398.50
2023-01-19T01:21:26.063Z,94394.69
2023-01-19T01:23:52.560Z,94391.25
2023-01-19T01:26:19.143Z,94394.50
2023-01-19T01:28:45.624Z,94391.25
2023-01-19T01:31:12.231Z,94384.41
2023-01-19T01:33:40.562Z,94378.19
2023-01-19T01:36:08.823Z,94379.16
2023-01-19T01:38:35.276Z,94362.88
2023-01-19T01:41:01.755Z,94359.84
2023-01-19T01:43:41.608Z,94350.38
2023-01-19T01:46:08.461Z,94342.53
2023-01-19T01:48:35.953Z,94338.31
2023-01-19T01:51:20.769Z,94332.28
2023-01-19T01:53:49.665Z,94333.28
2023-01-19T01:56:18.693Z,94325.84
2023-01-19T01:58:45.860Z,94323.22
2023-01-19T02:01:35.280Z,94322.41
2023-01-19T02:04:01.907Z,94310.34
2023-01-19T02:06:28.519Z,94305.13
2023-01-19T02:09:13.445Z,94298.88
2023-01-19T02:11:59.503Z,94306.50
2023-01-19T02:14:25.983Z,94301.50
2023-01-19T02:16:52.606Z,94291.84
2023-01-19T02:19:30.204Z,94287.19
2023-01-19T02:22:11.331Z,94286.59
2023-01-19T02:24:38.048Z,94281.56
2023-01-19T02:27:05.143Z,94284.19
2023-01-19T02:29:32.575Z,94268.66
2023-01-19T02:31:59.901Z,94259.44
2023-01-19T02:34:26.500Z,94251.59
2023-01-19T02:37:06.596Z,94244.34
2023-01-19T02:40:08.337Z,94237.09
2023-01-19T02:42:39.449Z,94231.88
2023-01-19T02:45:09.446Z,94223.41
2023-01-19T02:47:40.050Z,94221.41
2023-01-19T02:50:26.460Z,94218.38
2023-01-19T02:52:55.883Z,94202.06
2023-01-19T02:55:27.920Z,94208.09
2023-01-19T02:58:17.684Z,94207.09
2023-01-19T03:00:50.119Z,94203.47
2023-01-19T03:03:25.661Z,94216.78
2023-01-19T03:05:55.001Z,94218.19
2023-01-19T03:08:21.435Z,94216.16
2023-01-19T03:10:58.203Z,94217.78
2023-01-19T03:13:24.605Z,94227.66
2023-01-19T03:15:55.159Z,94235.91
2023-01-19T03:18:24.554Z,94232.28
2023-01-19T03:20:53.538Z,94228.66
2023-01-19T03:23:21.670Z,94226.66
2023-01-19T03:25:50.366Z,94232.28
2023-01-19T03:28:19.599Z,94240.75
2023-01-19T03:30:49.415Z,94228.63
2023-01-19T03:33:18.016Z,94230.66
2023-01-19T03:35:45.943Z,94241.53
2023-01-19T03:38:14.991Z,94241.53
2023-01-19T03:40:41.752Z,94242.72
2023-01-19T03:43:08.674Z,94243.13
2023-01-19T03:45:37.760Z,94245.31
2023-01-19T03:48:05.166Z,94247.56
2023-01-19T03:50:32.047Z,94245.13
2023-01-19T03:53:05.550Z,94255.41
2023-01-19T03:55:32.187Z,94249.56
2023-01-19T03:57:58.748Z,94242.34
2023-01-19T04:00:26.011Z,94232.84
2023-01-19T04:02:52.656Z,94238.09
2023-01-19T04:05:19.277Z,94236.50
2023-01-19T04:07:48.004Z,94242.34
2023-01-19T04:10:16.065Z,94244.13
2023-01-19T04:12:42.719Z,94264.25
2023-01-19T04:15:09.205Z,94270.09
2023-01-19T04:17:35.770Z,94256.81
2023-01-19T04:20:02.383Z,94257.00
2023-01-19T04:22:30.222Z,94252.56
2023-01-19T04:24:56.705Z,94252.38
2023-01-19T04:27:23.265Z,94259.59
2023-01-19T04:29:49.694Z,94271.09
2023-01-19T04:32:16.232Z,94280.75
2023-01-19T04:34:42.717Z,94288.00
2023-01-19T04:37:09.671Z,94296.44
2023-01-19T04:39:36.213Z,94312.97
2023-01-19T04:42:02.662Z,94310.56
2023-01-19T04:44:29.247Z,94304.91
2023-01-19T04:46:55.785Z,94308.50
2023-01-19T04:49:22.287Z,94302.28
2023-01-19T04:51:48.751Z,94290.63
2023-01-19T04:54:15.425Z,94274.13
2023-01-19T04:56:41.982Z,94282.59
2023-01-19T04:59:08.452Z,94282.16
2023-01-19T05:01:35.482Z,94239.69
2023-01-19T05:04:03.750Z,94242.72
2023-01-19T05:06:30.232Z,94261.63
2023-01-19T05:08:56.663Z,94245.94
2023-01-19T05:11:23.145Z,94240.72
2023-01-19T05:13:51.002Z,94228.22
2023-01-19T05:16:18.030Z,94219.97
2023-01-19T05:18:44.522Z,94209.09
2023-01-19T05:21:10.967Z,94215.34
2023-01-19T05:23:37.424Z,94217.75
2023-01-19T05:26:04.053Z,94239.91
2023-01-19T05:28:31.238Z,94262.44
2023-01-19T05:30:57.846Z,94300.66
2023-01-19T05:33:24.388Z,94315.38
2023-01-19T05:35:51.556Z,94318.00
2023-01-19T05:38:23.343Z,94327.66
2023-01-19T05:40:58.952Z,94338.50
2023-01-19T05:43:25.576Z,94341.34
2023-01-19T05:45:52.062Z,94337.28
2023-01-19T05:48:18.575Z,94334.28
2023-01-19T05:50:45.021Z,94339.34
2023-01-19T05:53:11.477Z,94331.28
2023-01-19T05:55:38.101Z,94332.06
2023-01-19T05:58:04.554Z,94335.28
2023-01-19T06:00:31.025Z,94322.41
2023-01-19T06:02:57.622Z,94306.72
2023-01-19T06:05:24.184Z,94299.47
2023-01-19T06:07:50.632Z,94301.06
2023-01-19T06:10:17.134Z,94292.41
2023-01-19T06:12:43.719Z,94295.03
2023-01-19T06:15:10.363Z,94305.91
2023-01-19T06:17:37.002Z,94309.94
2023-01-19T06:20:03.540Z,94304.09
2023-01-19T06:22:29.974Z,94297.47
2023-01-19T06:24:56.429Z,94284.38
2023-01-19T06:27:22.943Z,94271.69
2023-01-19T06:29:49.463Z,94268.88
2023-01-19T06:32:15.882Z,94276.34
2023-01-19T06:34:43.837Z,94297.06
2023-01-19T06:37:13.893Z,94298.28
2023-01-19T06:39:41.175Z,94303.50
2023-01-19T06:42:08.208Z,94313.38
2023-01-19T06:44:34.729Z,94332.66
2023-01-19T06:47:15.707Z,94341.72
2023-01-19T06:49:42.762Z,94350.97
2023-01-19T06:52:10.505Z,94345.75
2023-01-19T06:54:37.231Z,94348.56
2023-01-19T06:57:04.372Z,94353.78
2023-01-19T06:59:31.770Z,94350.56
2023-01-19T07:01:59.179Z,94356.00
2023-01-19T07:04:27.096Z,94356.00
2023-01-19T07:06:53.686Z,94358.59
2023-01-19T07:09:20.539Z,94358.19
2023-01-19T07:11:48.122Z,94357.19
2023-01-19T07:14:14.697Z,94364.63
2023-01-19T07:16:41.154Z,94372.69
2023-01-19T07:19:10.623Z,94360.81
2023-01-19T07:21:37.268Z,94361.44
2023-01-19T07:24:03.710Z,94353.56
2023-01-19T07:26:30.922Z,94345.16
2023-01-19T07:28:57.516Z,94345.38
2023-01-19T07:31:24.064Z,94340.91
2023-01-19T07:33:50.666Z,94334.50
2023-01-19T07:36:17.139Z,94332.47
2023-01-19T07:38:43.605Z,94345.56
2023-01-19T07:41:10.415Z,94346.97
2023-01-19T07:43:36.868Z,94345.78
2023-01-19T07:46:04.705Z,94334.09
2023-01-19T07:48:31.184Z,94337.50
2023-01-19T07:51:01.555Z,94343.16
2023-01-19T07:53:28.241Z,94341.31
2023-01-19T07:55:56.525Z,94359.44
2023-01-19T07:58:23.686Z,94371.88
2023-01-19T08:00:50.767Z,94358.03
2023-01-19T08:03:19.556Z,94363.06
2023-01-19T08:05:49.770Z,94362.66
2023-01-19T08:08:16.210Z,94375.13
2023-01-19T08:10:42.659Z,94364.03
2023-01-19T08:13:09.086Z,94353.41
2023-01-19T08:15:35.622Z,94363.47
2023-01-19T08:18:02.879Z,94373.88
2023-01-19T08:20:29.937Z,94368.28
2023-01-19T08:23:02.991Z,94361.25
2023-01-19T08:25:33.699Z,94365.47
2023-01-19T08:28:00.311Z,94368.69
2023-01-19T08:30:26.969Z,94360.22
2023-01-19T08:33:04.004Z,94362.03
2023-01-19T08:35:31.557Z,94355.00
2023-01-19T08:38:01.257Z,94352.97
2023-01-19T08:40:28.775Z,94350.56
2023-01-19T08:43:01.948Z,94339.88
2023-01-19T08:45:29.986Z,94351.78
2023-01-19T08:47:58.984Z,94339.31
2023-01-19T08:50:26.175Z,94345.75
2023-01-19T08:52:52.666Z,94341.72
2023-01-19T08:55:19.107Z,94344.94
2023-01-19T08:57:45.528Z,94340.53
2023-01-19T09:00:12.344Z,94337.50
2023-01-19T09:02:38.915Z,94327.84
2023-01-19T09:05:05.718Z,94331.06
2023-01-19T09:07:33.926Z,94328.44
2023-01-19T09:10:02.003Z,94331.66
2023-01-19T09:12:28.459Z,94323.81
2023-01-19T09:14:54.907Z,94328.44
2023-01-19T09:17:21.571Z,94327.66
2023-01-19T09:19:48.010Z,94327.88
2023-01-19T09:22:14.521Z,94321.22
2023-01-19T09:24:41.115Z,94325.63
2023-01-19T09:27:07.937Z,94322.03
2023-01-19T09:29:34.426Z,94335.88
2023-01-19T09:32:00.854Z,94333.88
2023-01-19T09:34:27.367Z,94328.06
2023-01-19T09:36:53.934Z,94344.97
2023-01-19T09:39:20.421Z,94344.13
2023-01-19T09:41:49.326Z,94336.28
2023-01-19T09:44:31.815Z,94332.66
2023-01-19T09:46:58.606Z,94328.44
2023-01-19T09:49:31.395Z,94328.03
2023-01-19T09:51:58.669Z,94331.25
2023-01-19T09:54:31.237Z,94329.44
2023-01-19T09:56:57.692Z,94327.22
2023-01-19T09:59:25.691Z,94334.50
2023-01-19T10:01:52.564Z,94323.00
2023-01-19T10:04:24.945Z,94312.97
2023-01-19T10:06:54.350Z,94307.94
2023-01-19T10:09:28.739Z,94303.28
2023-01-19T10:12:02.395Z,94304.72
2023-01-19T10:14:36.573Z,94309.31
2023-01-19T10:17:06.006Z,94312.75
2023-01-19T10:19:42.107Z,94298.28
2023-01-19T10:22:19.488Z,94295.47
2023-01-19T10:24:46.773Z,94284.38
2023-01-19T10:27:17.973Z,94290.44
2023-01-19T10:29:45.120Z,94286.19
2023-01-19T10:32:14.175Z,94267.69
2023-01-19T10:34:41.672Z,94274.53
2023-01-19T10:37:14.193Z,94285.78
2023-01-19T10:39:40.913Z,94298.88
2023-01-19T10:42:10.827Z,94301.88
2023-01-19T10:44:37.634Z,94304.31
2023-01-19T10:47:06.245Z,94307.53
2023-01-19T10:49:40.133Z,94306.91
2023-01-19T10:52:07.696Z,94301.06
2023-01-19T10:54:36.349Z,94296.25
2023-01-19T10:57:04.396Z,94292.81
2023-01-19T10:59:38.349Z,94306.72
2023-01-19T11:02:11.025Z,94313.16
2023-01-19T11:04:37.545Z,94306.72
2023-01-19T11:07:15.211Z,94300.91
2023-01-19T11:09:41.704Z,94295.88
2023-01-19T11:12:16.039Z,94297.47
2023-01-19T11:14:42.611Z,94290.00
2023-01-19T11:17:16.776Z,94294.84
2023-01-19T11:19:43.259Z,94288.59
2023-01-19T11:22:22.783Z,94291.44
2023-01-19T11:24:49.601Z,94264.88
2023-01-19T11:27:16.657Z,94268.50
2023-01-19T11:29:47.489Z,94266.88
2023-01-19T11:32:20.506Z,94267.69
2023-01-19T11:34:46.964Z,94264.06
2023-01-19T11:37:16.387Z,94272.13
2023-01-19T11:39:50.188Z,94275.94
2023-01-19T11:42:17.685Z,94264.88
2023-01-19T11:45:05.433Z,94264.50
2023-01-19T11:47:45.724Z,94264.88
2023-01-19T11:50:15.047Z,94269.53
2023-01-19T11:52:50.788Z,94271.91
2023-01-19T11:55:30.751Z,94271.69
2023-01-19T11:57:57.267Z,94261.06
2023-01-19T12:00:24.032Z,94258.63
2023-01-19T12:02:52.723Z,94260.88
2023-01-19T12:05:20.164Z,94268.91
2023-01-19T12:07:47.744Z,94272.31
2023-01-19T12:10:17.235Z,94270.50
2023-01-19T12:12:43.980Z,94281.38
2023-01-19T12:15:10.621Z,94267.28
2023-01-19T12:17:41.067Z,94267.28
2023-01-19T12:20:17.504Z,94270.31
2023-01-19T12:22:50.697Z,94273.72
2023-01-19T12:25:26.641Z,94272.31
2023-01-19T12:27:53.457Z,94274.34
2023-01-19T12:30:20.037Z,94270.50
2023-01-19T12:32:46.814Z,94266.88
2023-01-19T12:35:32.135Z,94269.28
2023-01-19T12:37:58.642Z,94271.69
2023-01-19T12:40:26.871Z,94278.56
2023-01-19T12:43:03.994Z,94272.72
2023-01-19T12:45:32.231Z,94271.13
2023-01-19T12:47:59.328Z,94280.97
2023-01-19T12:50:26.137Z,94278.13
2023-01-19T12:52:57.294Z,94288.19
2023-01-19T12:55:31.085Z,94287.00
2023-01-19T12:58:17.762Z,94285.41
2023-01-19T13:00:48.184Z,94291.22
2023-01-19T13:03:17.448Z,94297.88
2023-01-19T13:05:43.881Z,94296.66
2023-01-19T13:08:10.414Z,94304.69
2023-01-19T13:10:55.735Z,94305.50
2023-01-19T13:13:29.810Z,94311.34
2023-01-19T13:15:57.203Z,94309.16
2023-01-19T13:18:25.300Z,94304.13
2023-01-19T13:20:58.627Z,94305.31
2023-01-19T13:23:26.427Z,94318.38
2023-01-19T13:26:01.403Z,94321.41
2023-01-19T13:28:33.074Z,94341.72
2023-01-19T13:31:01.041Z,94324.63
2023-01-19T13:33:30.118Z,94325.66
2023-01-19T13:35:58.802Z,94328.66
2023-01-19T13:38:27.102Z,94339.72
2023-01-19T13:40:54.688Z,94345.16
2023-01-19T13:43:24.805Z,94354.22
2023-01-19T13:45:53.475Z,94350.19
2023-01-19T13:48:22.220Z,94344.56
2023-01-19T13:50:59.232Z,94335.69
2023-01-19T13:53:25.809Z,94337.91
2023-01-19T13:56:07.683Z,94330.88
2023-01-19T13:58:34.178Z,94338.94
2023-01-19T14:01:00.736Z,94332.47
2023-01-19T14:03:27.279Z,94340.53
2023-01-19T14:05:54.474Z,94342.53
2023-01-19T14:08:21.621Z,94349.00
2023-01-19T14:10:54.205Z,94353.81
2023-01-19T14:13:29.884Z,94362.28
2023-01-19T14:15:57.872Z,94372.34
2023-01-19T14:18:27.400Z,94384.81
2023-01-19T14:21:08.943Z,94382.81
2023-01-19T14:23:35.346Z,94382.00
2023-01-19T14:26:01.839Z,94378.34
2023-01-19T14:28:35.879Z,94372.31
2023-01-19T14:31:03.660Z,94377.16
2023-01-19T14:33:34.073Z,94380.34
2023-01-19T14:36:10.921Z,94390.81
2023-01-19T14:38:39.432Z,94386.19
2023-01-19T14:41:06.272Z,94384.78
2023-01-19T14:43:32.904Z,94378.75
2023-01-19T14:45:59.364Z,94384.78
2023-01-19T14:48:29.252Z,94394.44
2023-01-19T14:51:04.072Z,94408.50
2023-01-19T14:53:36.623Z,94407.31
2023-01-19T14:56:07.549Z,94406.91
2023-01-19T14:58:35.359Z,94401.28
2023-01-19T15:01:02.354Z,94403.31
2023-01-19T15:03:44.791Z,94407.75
2023-01-19T15:06:17.372Z,94406.91
2023-01-19T15:08:44.046Z,94417.38
2023-01-19T15:11:22.850Z,94430.66
2023-01-19T15:13:49.863Z,94435.91
2023-01-19T15:16:16.538Z,94442.72
2023-01-19T15:18:43.062Z,94435.88
2023-01-19T15:21:19.744Z,94440.72
2023-01-19T15:23:47.675Z,94447.78
2023-01-19T15:26:17.121Z,94443.34
2023-01-19T15:28:43.947Z,94444.34
2023-01-19T15:31:20.863Z,94450.41
2023-01-19T15:33:47.476Z,94447.94
2023-01-19T15:36:18.514Z,94458.19
2023-01-19T15:38:45.562Z,94462.84
2023-01-19T15:41:18.168Z,94465.47
2023-01-19T15:43:44.701Z,94464.44
2023-01-19T15:46:13.368Z,94457.22
2023-01-19T15:48:39.842Z,94458.63
2023-01-19T15:51:06.293Z,94464.66
2023-01-19T15:53:34.359Z,94468.50
2023-01-19T15:56:00.808Z,94467.06
2023-01-19T15:58:27.398Z,94460.81
2023-01-19T16:00:55.325Z,94453.97
2023-01-19T16:03:22.027Z,94457.19
2023-01-19T16:05:48.806Z,94460.44
2023-01-19T16:08:15.723Z,94462.22
2023-01-19T16:10:42.688Z,94470.47
2023-01-19T16:13:10.695Z,94474.91
2023-01-19T16:15:37.672Z,94478.97
2023-01-19T16:18:04.852Z,94480.56
2023-01-19T16:20:31.426Z,94477.75
2023-01-19T16:23:09.714Z,94480.34
2023-01-19T16:25:40.626Z,94480.97
2023-01-19T16:28:08.241Z,94480.97
2023-01-19T16:30:34.807Z,94495.03
2023-01-19T16:33:01.477Z,94491.41
2023-01-19T16:35:27.937Z,94483.16
2023-01-19T16:37:54.432Z,94484.59
2023-01-19T16:40:21.103Z,94490.22
2023-01-19T16:42:47.613Z,94491.03
2023-01-19T16:45:14.173Z,94495.44
2023-01-19T16:47:40.636Z,94501.69
2023-01-19T16:50:10.044Z,94501.69
2023-01-19T16:52:36.624Z,94495.22
2023-01-19T16:55:07.098Z,94508.31
2023-01-19T16:57:33.583Z,94505.28
2023-01-19T17:00:00.022Z,94507.53
2023-01-19T17:02:26.503Z,94518.00
2023-01-19T17:04:52.978Z,94523.78
2023-01-19T17:07:19.531Z,94518.75
2023-01-19T17:09:46.008Z,94528.44
2023-01-19T17:12:12.650Z,94533.03
2023-01-19T17:14:39.518Z,94531.41
2023-01-19T17:17:09.292Z,94528.00
2023-01-19T17:19:35.749Z,94521.56
2023-01-19T17:22:02.228Z,94521.56
2023-01-19T17:24:28.663Z,94527.59
2023-01-19T17:26:55.124Z,94526.97
2023-01-19T17:29:21.649Z,94532.00
2023-01-19T17:31:49.741Z,94535.03
2023-01-19T17:34:16.185Z,94548.94
2023-01-19T17:36:42.711Z,94558.19
2023-01-19T17:39:11.544Z,94546.75
2023-01-19T17:41:38.043Z,94536.28
2023-01-19T17:44:05.262Z,94536.09
2023-01-19T17:46:32.258Z,94535.25
2023-01-19T17:49:00.298Z,94535.06
2023-01-19T17:51:27.702Z,94537.69
2023-01-19T17:53:55.169Z,94533.03
2023-01-19T17:56:23.200Z,94523.56
2023-01-19T17:58:49.759Z,94515.72
2023-01-19T18:01:16.306Z,94526.59
2023-01-19T18:03:43.166Z,94521.16
2023-01-19T18:06:10.026Z,94528.19
2023-01-19T18:08:40.350Z,94535.03
2023-01-19T18:11:07.090Z,94551.72
2023-01-19T18:13:33.551Z,94555.53
2023-01-19T18:16:01.228Z,94561.16
2023-01-19T18:18:28.385Z,94575.84
2023-01-19T18:20:58.288Z,94595.13
2023-01-19T18:23:24.747Z,94605.59
2023-01-19T18:25:57.353Z,94604.75
2023-01-19T18:28:23.819Z,94605.91
2023-01-19T18:30:50.362Z,94613.94
2023-01-19T18:33:16.844Z,94604.75
2023-01-19T18:35:43.300Z,94598.69
2023-01-19T18:38:09.800Z,94604.13
2023-01-19T18:40:36.292Z,94597.69
2023-01-19T18:43:02.773Z,94591.44
2023-01-19T18:45:29.236Z,94587.59
2023-01-19T18:47:55.664Z,94581.72
2023-01-19T18:50:22.221Z,94595.78
2023-01-19T18:52:48.819Z,94603.00
2023-01-19T18:55:15.247Z,94597.75
2023-01-19T18:57:41.703Z,94595.16
2023-01-19T19:00:09.913Z,94590.97
2023-01-19T19:02:36.466Z,94581.53
2023-01-19T19:05:03.083Z,94604.50
2023-01-19T19:07:29.539Z,94634.69
2023-01-19T19:09:56.007Z,94650.16
2023-01-19T19:12:22.705Z,94655.81
2023-01-19T19:14:49.165Z,94662.50
2023-01-19T19:17:15.705Z,94652.03
2023-01-19T19:19:42.153Z,94654.66
2023-01-19T19:22:08.585Z,94651.84
2023-01-19T19:24:35.550Z,94663.13
2023-01-19T19:27:01.978Z,94660.31
2023-01-19T19:29:28.591Z,94663.72
2023-01-19T19:31:56.598Z,94667.97
2023-01-19T19:34:24.630Z,94667.34
2023-01-19T19:36:51.272Z,94660.31
2023-01-19T19:39:17.707Z,94661.88
2023-01-19T19:41:44.220Z,94670.34
2023-01-19T19:44:12.645Z,94673.56
2023-01-19T19:46:40.568Z,94681.22
2023-01-19T19:49:07.093Z,94682.19
2023-01-19T19:51:33.575Z,94686.44
2023-01-19T19:54:00.605Z,94690.06
2023-01-19T19:56:28.480Z,94690.06
2023-01-19T19:58:56.476Z,94705.38
2023-01-19T20:01:32.081Z,94711.41
2023-01-19T20:04:03.575Z,94721.47
2023-01-19T20:06:30.120Z,94727.53
2023-01-19T20:08:56.918Z,94721.31
2023-01-19T20:11:26.269Z,94717.69
2023-01-19T20:13:52.751Z,94729.31
2023-01-19T20:16:21.971Z,94728.53
2023-01-19T20:18:51.402Z,94739.19
2023-01-19T20:21:20.131Z,94740.78
2023-01-19T20:23:47.403Z,94723.84
2023-01-19T20:26:15.315Z,94712.91
2023-01-19T20:28:42.110Z,94731.78
2023-01-19T20:31:13.046Z,94720.16
2023-01-19T20:33:39.979Z,94725.63
2023-01-19T20:36:06.615Z,94735.69
2023-01-19T20:38:33.129Z,94732.06
2023-01-19T20:40:59.665Z,94737.94
2023-01-19T20:43:26.494Z,94746.41
2023-01-19T20:45:53.023Z,94749.16
2023-01-19T20:48:19.494Z,94755.38
2023-01-19T20:50:46.000Z,94748.91
2023-01-19T20:53:12.442Z,94753.28
2023-01-19T20:55:38.983Z,94753.38
2023-01-19T20:58:05.575Z,94757.38
2023-01-19T21:00:32.047Z,94756.19
2023-01-19T21:02:58.535Z,94752.22
2023-01-19T21:05:25.160Z,94759.91
2023-01-19T21:07:51.606Z,94764.41
2023-01-19T21:10:18.239Z,94752.38
2023-01-19T21:12:44.768Z,94752.03
2023-01-19T21:15:11.590Z,94758.81
2023-01-19T21:17:38.243Z,94756.00
2023-01-19T21:20:04.948Z,94755.22
2023-01-19T21:22:31.449Z,94759.91
2023-01-19T21:24:57.875Z,94746.03
2023-01-19T21:27:24.401Z,94748.63
2023-01-19T21:29:50.851Z,94753.47
2023-01-19T21:32:17.314Z,94766.56
2023-01-19T21:34:44.382Z,94753.66
2023-01-19T21:37:10.870Z,94765.69
2023-01-19T21:39:37.303Z,94776.16
2023-01-19T21:42:03.771Z,94782.00
2023-01-19T21:44:30.227Z,94789.84
2023-01-19T21:46:57.374Z,94798.31
2023-01-19T21:49:23.877Z,94801.56
2023-01-19T21:51:50.698Z,94819.69
2023-01-19T21:54:17.603Z,94824.09
2023-01-19T21:56:44.357Z,94832.56
2023-01-19T21:59:13.183Z,94844.63
2023-01-19T22:01:39.726Z,94850.69
2023-01-19T22:04:06.263Z,94856.09
2023-01-19T22:06:32.753Z,94858.09
2023-01-19T22:09:00.722Z,94864.31
2023-01-19T22:11:28.046Z,94869.56
2023-01-19T22:13:54.739Z,94876.41
2023-01-19T22:16:22.943Z,94881.25
2023-01-19T22:18:51.365Z,94870.78
2023-01-19T22:21:19.518Z,94870.78
2023-01-19T22:23:50.911Z,94884.06
2023-01-19T22:26:17.851Z,94883.63
2023-01-19T22:28:44.544Z,94888.84
2023-01-19T22:31:12.574Z,94892.47
2023-01-19T22:33:39.343Z,94898.31
2023-01-19T22:36:09.886Z,94900.94
2023-01-19T22:38:37.034Z,94910.59
2023-01-19T22:41:11.850Z,94909.16
2023-01-19T22:43:38.395Z,94913.69
2023-01-19T22:46:07.250Z,94912.25
2023-01-19T22:48:34.995Z,94919.72
2023-01-19T22:51:01.587Z,94931.44
2023-01-19T22:53:28.048Z,94937.31
2023-01-19T22:55:54.474Z,94936.28
2023-01-19T22:58:21.702Z,94920.72
2023-01-19T23:00:48.142Z,94910.25
2023-01-19T23:03:14.865Z,94912.88
2023-01-19T23:05:41.366Z,94929.84
2023-01-19T23:08:07.846Z,94932.44
2023-01-19T23:10:34.973Z,94927.75
2023-01-19T23:13:01.402Z,94916.41
2023-01-19T23:15:27.905Z,94911.53
2023-01-19T23:17:54.427Z,94913.97
2023-01-19T23:20:20.924Z,94922.44
2023-01-19T23:22:47.406Z,94923.19
2023-01-19T23:25:14.150Z,94919.50
2023-01-19T23:27:40.845Z,94917.72
2023-01-19T23:30:07.989Z,94918.88
2023-01-19T23:32:34.477Z,94914.72
2023-01-19T23:35:00.892Z,94911.75
2023-01-19T23:37:27.312Z,94922.00
2023-01-19T23:39:53.792Z,94924.28
2023-01-19T23:42:20.213Z,94912.13
2023-01-19T23:44:46.658Z,94907.09
2023-01-19T23:47:13.077Z,94912.69
2023-01-19T23:49:40.208Z,94917.91
2023-01-19T23:52:06.811Z,94910.44
2023-01-19T23:54:33.353Z,94912.03
2023-01-19T23:56:59.763Z,94923.78
2023-01-19T23:59:26.227Z,94921.44
